map of HIE home
HIE - Airport
Location
City:  Whitefield, New Hampshire, United States
Name:Mount Washington Regional
ICAO:KHIE
IATA:HIE
FAA LID:HIE

Details
Type:Airport (Airfield)
Use:Public/Civil
Latitude:4422'03"N (44.367556)
Longitude:7132'45"W (-71.545805)
Datum:WGS 1984
Elevation:1072 ft (327 m)
Variation:14.79W (WMM2015v2 magnetic declination)
0.10 annual change
Runways:1
Longest:4001 × 75 ft (1220 × 23 m), paved

Time
Time Zone:UTC-5 (DST-4)
Local Time:

Weather
METAR:KHIE 041352Z AUTO 00000KT 8SM OVC024 01/M01 A2996 RMK AO2 SLP161 I1001 T00061006
TAF:KHIE 041120Z 0412/0512 VRB03KT P6SM BKN025 OVC050

Related Locations
Nearby:
Farthest:YAUG: 11653 mi / 18754 km
Augusta [Augusta Airport], WA, AU

Find:

   beyond  
but within

Other Information
Maps:
NOTAMs:
Links:
Sources:

  
  • flag of United States
  • flag of New Hampshire
  

Sectional Chart

Flight Planning
at skyvector.com

Satellite Image

Google Maps Satellite view

 

Copyright © 2004-2019 Karl L. Swartz. All rights reserved.
The Great Circle Mapper name and logo are trademarks of the Great Circle Mapper.
All other trademarks mentioned herein belong to their respective owners.
Please see credits for attibutions and further copyright information.

  Follow gcmap on Facebook Follow gcmap on Twitter GCmap on LinkedIn

hCard Microformat

Geo Microformat